Time;durP1;ratioP1;P1;durP2;ratioP2;P2;SDS_P1;SDS_P2;PMS_P1;PMS_P2;Temp;Humidity;BMP_temperature;BMP_pressure;BME280_temperature;BME280_humidity;BME280_pressure;Samples;Min_cycle;Max_cycle;Signal;HPM_P1;HPM_P2
2020/12/13 00:00:32;;;;;;;2.20;1.50;;;4.40;99.90;;;;;;5099678;28;20215;-92
2020/12/13 00:03:03;;;;;;;2.30;1.57;;;4.30;99.90;;;;;;5098408;28;20229;-92
2020/12/13 00:05:34;;;;;;;1.70;1.30;;;4.20;99.90;;;;;;5099534;28;20214;-92
2020/12/13 00:08:05;;;;;;;3.87;1.50;;;4.10;99.90;;;;;;5098961;28;20202;-92
2020/12/13 00:10:37;;;;;;;2.97;1.53;;;4.00;99.90;;;;;;5103308;28;20234;-94
2020/12/13 00:13:11;;;;;;;2.93;1.40;;;4.00;99.90;;;;;;5098321;28;20267;-94
2020/12/13 00:15:42;;;;;;;2.17;1.33;;;3.90;99.90;;;;;;5100652;28;20260;-94
2020/12/13 00:18:12;;;;;;;2.80;1.50;;;3.80;99.90;;;;;;5100857;28;20213;-91
2020/12/13 00:20:43;;;;;;;2.30;1.80;;;3.70;99.90;;;;;;5102597;28;20213;-95
2020/12/13 00:23:15;;;;;;;3.07;1.90;;;3.60;99.90;;;;;;5111549;28;20202;-91
2020/12/13 00:25:47;;;;;;;2.20;1.70;;;3.60;99.90;;;;;;5102606;28;20271;-93
2020/12/13 00:28:18;;;;;;;4.03;2.80;;;3.50;99.90;;;;;;5082965;28;20234;-90
2020/12/13 00:30:48;;;;;;;3.30;2.87;;;3.40;99.90;;;;;;5086171;28;20229;-90
2020/12/13 00:33:19;;;;;;;9.20;5.27;;;3.40;99.90;;;;;;5110507;28;20218;-91
2020/12/13 00:35:50;;;;;;;3.53;3.00;;;3.30;99.90;;;;;;5101162;28;20226;-90
2020/12/13 00:38:22;;;;;;;3.33;2.70;;;3.20;99.90;;;;;;5101535;28;20217;-91
2020/12/13 00:40:55;;;;;;;4.50;4.10;;;3.10;99.90;;;;;;5101463;28;20207;-94
2020/12/13 00:43:27;;;;;;;4.00;3.70;;;3.10;99.90;;;;;;5102684;28;20218;-93
2020/12/13 00:45:58;;;;;;;6.70;4.67;;;3.00;99.90;;;;;;5106895;28;20207;-93
2020/12/13 00:48:30;;;;;;;4.17;3.40;;;3.00;99.90;;;;;;5098268;28;20195;-92
2020/12/13 00:51:01;;;;;;;3.53;2.80;;;2.90;99.90;;;;;;5105735;28;20271;-92
2020/12/13 00:53:32;;;;;;;4.57;2.83;;;2.90;99.90;;;;;;5099941;28;20199;-92
2020/12/13 00:56:04;;;;;;;4.73;3.70;;;2.80;99.90;;;;;;5101358;28;20215;-93
2020/12/13 00:58:36;;;;;;;6.73;4.23;;;2.80;99.90;;;;;;5099768;28;20843;-92
2020/12/13 01:01:07;;;;;;;4.20;3.80;;;2.70;99.90;;;;;;5099047;28;20203;-91
2020/12/13 01:03:38;;;;;;;3.73;3.03;;;2.70;99.90;;;;;;5098803;28;20251;-92
2020/12/13 01:06:09;;;;;;;7.93;3.20;;;2.60;99.90;;;;;;5100927;28;20202;-92
2020/12/13 01:08:41;;;;;;;4.07;3.37;;;2.60;99.90;;;;;;5100548;28;20301;-94
2020/12/13 01:11:14;;;;;;;4.03;3.63;;;2.60;99.90;;;;;;5100167;28;20264;-91
2020/12/13 01:13:54;;;;;;;3.13;2.83;;;2.60;99.90;;;;;;5115392;28;20201;-91
2020/12/13 01:16:25;;;;;;;6.20;2.73;;;2.50;99.90;;;;;;5111117;28;20309;-92
2020/12/13 01:18:59;;;;;;;3.33;3.00;;;2.50;99.90;;;;;;5093044;28;20282;-94
2020/12/13 01:21:32;;;;;;;4.20;3.27;;;2.50;99.90;;;;;;5091028;28;20217;-93
2020/12/13 01:24:03;;;;;;;4.33;3.30;;;2.50;99.90;;;;;;5106835;28;20683;-89
2020/12/13 01:26:34;;;;;;;3.27;2.77;;;2.40;99.90;;;;;;5102523;28;20238;-91
2020/12/13 01:29:05;;;;;;;4.43;2.93;;;2.40;99.90;;;;;;5110913;28;20195;-90
2020/12/13 01:31:39;;;;;;;3.97;3.23;;;2.40;99.90;;;;;;5100038;28;20194;-95
2020/12/13 01:34:09;;;;;;;5.50;3.83;;;2.30;99.90;;;;;;5097516;28;20210;-91
2020/12/13 01:36:40;;;;;;;4.67;3.40;;;2.30;99.90;;;;;;5096149;28;20234;-91
2020/12/13 01:39:11;;;;;;;4.37;3.63;;;2.20;99.90;;;;;;5097439;28;20560;-91
2020/12/13 01:41:42;;;;;;;3.60;2.97;;;2.20;99.90;;;;;;5096560;28;20283;-91
2020/12/13 01:44:13;;;;;;;5.57;3.27;;;2.20;99.90;;;;;;5097619;28;20199;-91
2020/12/13 01:46:43;;;;;;;5.17;3.40;;;2.10;99.90;;;;;;5095754;28;20211;-91
2020/12/13 01:49:22;;;;;;;4.70;3.83;;;2.00;99.90;;;;;;5099265;28;20321;-91
2020/12/13 01:52:39;;;;;;;4.63;3.70;;;2.10;99.90;;;;;;5100651;28;20248;-92
2020/12/13 01:55:06;;;;;;;3.37;2.70;;;2.00;99.90;;;;;;5101356;28;20228;-92
2020/12/13 01:57:40;;;;;;;4.70;2.80;;;2.00;99.90;;;;;;5097772;28;20202;-92
2020/12/13 02:00:13;;;;;;;5.53;2.97;;;2.00;99.90;;;;;;5095852;28;20220;-92
2020/12/13 02:03:03;;;;;;;6.23;3.70;;;2.00;99.90;;;;;;5104585;28;20732;-90
2020/12/13 02:05:37;;;;;;;3.37;2.87;;;2.00;99.90;;;;;;5094277;28;20229;-90
2020/12/13 02:08:08;;;;;;;3.27;2.50;;;1.90;99.90;;;;;;5102787;28;20206;-90
2020/12/13 02:10:39;;;;;;;4.00;2.77;;;1.90;99.90;;;;;;5097543;28;20214;-91
2020/12/13 02:13:12;;;;;;;3.76;2.67;;;1.80;99.90;;;;;;4746608;28;10000384;-90
2020/12/13 02:15:47;;;;;;;3.03;2.73;;;1.80;99.90;;;;;;5103114;28;20241;-96
2020/12/13 02:32:05;;;;;;;3.07;2.77;;;1.80;99.90;;;;;;5226275;22;20331;-96
2020/12/13 02:34:41;;;;;;;3.63;3.27;;;1.80;99.90;;;;;;5018606;28;20206;-96
2020/12/13 02:37:12;;;;;;;4.53;3.50;;;1.80;99.90;;;;;;5029323;28;20217;-96
2020/12/13 02:39:43;;;;;;;3.47;3.00;;;1.80;99.90;;;;;;5032744;28;20204;-96
2020/12/13 02:42:17;;;;;;;4.10;3.70;;;1.80;99.90;;;;;;5016903;28;20224;-96
2020/12/13 02:44:49;;;;;;;4.83;3.90;;;1.80;99.90;;;;;;5015207;28;20186;-93
2020/12/13 02:51:00;;;;;;;4.37;3.40;;;1.80;99.90;;;;;;5924569;22;20233;-96
2020/12/13 02:53:54;;;;;;;4.67;4.10;;;1.70;99.90;;;;;;4992263;28;20222;-96
2020/12/13 02:59:13;;;;;;;5.70;4.20;;;1.70;99.90;;;;;;5756753;22;20322;-96
2020/12/13 03:01:50;;;;;;;5.10;3.60;;;1.70;99.90;;;;;;5041044;28;20546;-95
2020/12/13 03:04:21;;;;;;;4.00;3.33;;;1.70;99.90;;;;;;5046562;28;20215;-96
2020/12/13 03:06:55;;;;;;;4.80;3.90;;;1.70;99.90;;;;;;5050570;28;20215;-96
2020/12/13 03:09:42;;;;;;;4.77;3.70;;;1.70;99.90;;;;;;5030272;28;20226;-96
2020/12/13 03:12:14;;;;;;;5.37;3.40;;;1.80;99.90;;;;;;5037087;28;20247;-93
2020/12/13 03:14:46;;;;;;;4.10;3.50;;;1.80;99.90;;;;;;5037835;28;20230;-95
2020/12/13 03:17:37;;;;;;;4.30;3.10;;;1.80;99.90;;;;;;5037959;28;20338;-95
2020/12/13 03:20:23;;;;;;;4.17;2.93;;;1.70;99.90;;;;;;5044564;28;20253;-92
2020/12/13 03:26:04;;;;;;;2.63;2.07;;;2.10;99.90;;;;;;5041706;28;20204;-92
2020/12/13 03:28:37;;;;;;;3.67;2.37;;;2.30;99.90;;;;;;5033432;28;20270;-93
2020/12/13 03:31:07;;;;;;;3.00;2.10;;;2.50;99.90;;;;;;5042763;28;20207;-92
2020/12/13 03:33:38;;;;;;;3.27;2.10;;;2.60;99.90;;;;;;5046615;28;20212;-93
2020/12/13 03:36:09;;;;;;;4.33;2.70;;;2.70;99.90;;;;;;5052138;28;20288;-94
2020/12/13 03:38:40;;;;;;;3.17;2.27;;;2.90;99.90;;;;;;5054256;28;20218;-90
2020/12/13 03:41:13;;;;;;;5.27;2.37;;;2.90;99.90;;;;;;5050521;28;20189;-90
2020/12/13 03:43:50;;;;;;;2.13;1.53;;;3.00;99.90;;;;;;5039390;28;20260;-89
2020/12/13 03:46:25;;;;;;;1.73;1.50;;;3.10;99.90;;;;;;5044259;28;20221;-91
2020/12/13 03:49:16;;;;;;;1.17;1.00;;;3.20;99.90;;;;;;5048374;28;20215;-90
2020/12/13 03:52:03;;;;;;;4.23;2.17;;;3.40;99.90;;;;;;5041953;28;20314;-89
2020/12/13 03:54:41;;;;;;;1.97;1.60;;;3.50;99.90;;;;;;5045073;28;20197;-91
2020/12/13 03:57:30;;;;;;;;;;;;;;;;;;;;;
2020/12/13 04:00:03;;;;;;;2.77;0.80;;;3.70;99.90;;;;;;5031392;28;20237;-89
2020/12/13 04:02:34;;;;;;;1.03;0.77;;;3.80;99.90;;;;;;5027655;28;20202;-89
2020/12/13 04:05:05;;;;;;;1.17;1.07;;;3.90;99.90;;;;;;5039921;28;20210;-89
2020/12/13 04:07:36;;;;;;;3.17;1.00;;;4.00;99.90;;;;;;5042423;28;20273;-89
2020/12/13 04:10:07;;;;;;;1.23;1.10;;;4.10;99.90;;;;;;5035604;28;20199;-88
2020/12/13 04:12:39;;;;;;;2.30;1.40;;;4.10;99.90;;;;;;5038044;28;20208;-88
2020/12/13 04:15:11;;;;;;;1.83;1.40;;;4.20;99.90;;;;;;5044824;28;20610;-90
2020/12/13 04:17:41;;;;;;;1.43;0.97;;;4.20;99.90;;;;;;5042573;28;20197;-91
2020/12/13 04:20:14;;;;;;;1.73;1.30;;;4.20;99.90;;;;;;5048258;28;20211;-89
2020/12/13 04:22:46;;;;;;;3.07;1.70;;;4.20;99.90;;;;;;5051944;28;20332;-91
2020/12/13 04:25:30;;;;;;;3.83;1.37;;;4.10;99.90;;;;;;5045848;28;20256;-90
2020/12/13 04:28:12;;;;;;;2.13;1.60;;;4.10;99.90;;;;;;5049466;28;20238;-89
2020/12/13 04:30:44;;;;;;;1.90;1.60;;;4.10;99.90;;;;;;5052105;28;20235;-91
2020/12/13 04:33:24;;;;;;;1.50;1.27;;;4.20;99.90;;;;;;5050785;28;20276;-89
2020/12/13 04:35:57;;;;;;;2.07;1.10;;;4.20;99.90;;;;;;5047641;28;20544;-91
2020/12/13 04:38:29;;;;;;;1.20;1.10;;;4.20;99.90;;;;;;5047772;28;20219;-90
2020/12/13 04:41:05;;;;;;;1.17;1.03;;;4.30;99.90;;;;;;5050830;28;20231;-91
2020/12/13 04:43:41;;;;;;;2.40;1.40;;;4.40;99.90;;;;;;5051979;28;20200;-90
2020/12/13 04:46:14;;;;;;;1.33;1.20;;;4.50;99.90;;;;;;5049109;28;20197;-91
2020/12/13 04:48:54;;;;;;;3.13;1.53;;;4.50;99.90;;;;;;5057141;28;20208;-90
2020/12/13 04:51:34;;;;;;;2.10;1.90;;;4.50;99.90;;;;;;5047107;28;20508;-90
2020/12/13 04:54:07;;;;;;;1.47;1.33;;;4.50;99.90;;;;;;5050742;28;20203;-89
2020/12/13 04:56:45;;;;;;;1.20;1.10;;;4.50;99.90;;;;;;5036462;28;20233;-91
2020/12/13 04:59:19;;;;;;;1.30;1.20;;;4.60;99.90;;;;;;5048840;28;20228;-90
2020/12/13 05:01:53;;;;;;;1.60;1.40;;;4.60;99.90;;;;;;5055135;28;20203;-91
2020/12/13 05:04:32;;;;;;;1.23;1.10;;;4.50;99.90;;;;;;5047765;28;20197;-90
2020/12/13 05:07:06;;;;;;;2.53;1.63;;;4.60;99.90;;;;;;5034663;28;20220;-89
2020/12/13 05:09:39;;;;;;;1.10;1.00;;;4.60;99.90;;;;;;5036634;28;20197;-89
2020/12/13 05:12:23;;;;;;;1.40;1.10;;;4.70;99.90;;;;;;5034973;28;20247;-89
2020/12/13 05:15:08;;;;;;;1.13;1.03;;;4.80;99.90;;;;;;5048278;28;20240;-91
2020/12/13 05:17:42;;;;;;;2.33;1.33;;;4.90;99.90;;;;;;5047236;28;20223;-89
2020/12/13 05:20:12;;;;;;;1.10;0.90;;;5.00;99.90;;;;;;5041245;28;20208;-89
2020/12/13 05:22:45;;;;;;;1.00;0.90;;;5.00;99.90;;;;;;5050883;28;20275;-89
2020/12/13 05:25:36;;;;;;;1.80;1.40;;;5.00;99.90;;;;;;5054174;28;20197;-89
2020/12/13 05:28:12;;;;;;;1.20;0.90;;;4.90;99.90;;;;;;5044500;28;20267;-89
2020/12/13 05:30:54;;;;;;;1.93;1.20;;;5.00;99.90;;;;;;5042038;28;20201;-90
2020/12/13 05:33:29;;;;;;;1.43;1.30;;;5.10;99.90;;;;;;5036460;28;20201;-90
2020/12/13 05:36:03;;;;;;;2.40;1.33;;;5.10;99.90;;;;;;5039311;28;20365;-91
2020/12/13 05:38:35;;;;;;;1.63;1.20;;;5.10;99.90;;;;;;5040128;28;20292;-90
2020/12/13 05:41:08;;;;;;;2.07;1.50;;;5.10;99.90;;;;;;5034193;28;20213;-90
2020/12/13 05:43:42;;;;;;;1.80;1.40;;;5.00;99.90;;;;;;5040124;28;20208;-91
2020/12/13 05:51:47;;;;;;;1.23;0.90;;;5.10;99.90;;;;;;5030060;28;20256;-90
2020/12/13 05:54:22;;;;;;;1.10;0.93;;;5.10;99.90;;;;;;5040698;28;20224;-90
2020/12/13 05:56:57;;;;;;;2.43;1.33;;;5.10;99.90;;;;;;5027240;28;20639;-89
2020/12/13 05:59:28;;;;;;;2.20;1.60;;;5.00;99.90;;;;;;5045523;28;20660;-90
2020/12/13 06:02:02;;;;;;;2.77;1.53;;;5.00;99.90;;;;;;5050021;28;20207;-90
2020/12/13 06:04:34;;;;;;;2.43;1.93;;;5.00;99.90;;;;;;5051196;28;20288;-88
2020/12/13 06:07:05;;;;;;;1.67;1.40;;;5.10;99.90;;;;;;5039964;28;20236;-90
2020/12/13 06:09:46;;;;;;;1.83;1.30;;;5.30;99.90;;;;;;5052398;28;20201;-89
2020/12/13 06:12:29;;;;;;;3.03;1.60;;;5.30;99.90;;;;;;5045704;28;20250;-90
2020/12/13 06:15:01;;;;;;;1.73;1.13;;;5.30;99.90;;;;;;5045648;28;20204;-90
2020/12/13 06:17:33;;;;;;;0.80;0.80;;;5.30;99.90;;;;;;5047558;28;20256;-90
2020/12/13 06:20:04;;;;;;;0.97;0.80;;;5.40;99.90;;;;;;5043345;28;20212;-90
2020/12/13 06:22:35;;;;;;;0.97;0.80;;;5.40;99.90;;;;;;5054867;28;20223;-90
2020/12/13 06:25:06;;;;;;;1.10;1.00;;;5.40;99.90;;;;;;5044647;28;20247;-90
2020/12/13 06:27:37;;;;;;;1.00;0.60;;;5.40;99.90;;;;;;5050900;28;20236;-90
2020/12/13 06:30:10;;;;;;;2.07;1.10;;;5.50;99.90;;;;;;5044951;28;20300;-90
2020/12/13 06:32:47;;;;;;;1.00;0.77;;;5.50;99.90;;;;;;5048696;28;20200;-90
2020/12/13 06:35:18;;;;;;;1.10;0.80;;;5.60;99.90;;;;;;5044585;28;20196;-91
2020/12/13 06:37:49;;;;;;;1.13;0.70;;;5.80;99.90;;;;;;5038461;28;20228;-90
2020/12/13 06:40:20;;;;;;;0.90;0.63;;;5.80;99.90;;;;;;5052652;28;20231;-91
2020/12/13 06:42:52;;;;;;;0.83;0.70;;;5.90;99.90;;;;;;5045499;28;20331;-90
2020/12/13 06:45:23;;;;;;;1.43;1.20;;;5.80;99.90;;;;;;5046399;28;20208;-90
2020/12/13 06:48:01;;;;;;;1.73;1.20;;;5.70;99.90;;;;;;5050924;28;20262;-89
2020/12/13 06:50:33;;;;;;;1.73;1.20;;;5.50;99.90;;;;;;5040404;28;20207;-90
2020/12/13 06:53:04;;;;;;;4.23;1.37;;;5.40;99.90;;;;;;5051829;28;20276;-90
2020/12/13 06:55:38;;;;;;;1.93;1.20;;;5.30;99.90;;;;;;5027957;28;20213;-90
2020/12/13 06:58:09;;;;;;;1.43;1.07;;;5.20;99.90;;;;;;5049420;28;20253;-90
2020/12/13 07:00:50;;;;;;;1.97;1.60;;;5.10;99.90;;;;;;5058893;28;20291;-90
2020/12/13 07:03:30;;;;;;;1.90;1.50;;;5.10;99.90;;;;;;5036208;28;20204;-90
2020/12/13 07:06:04;;;;;;;2.53;1.73;;;5.00;99.90;;;;;;5040371;28;20276;-89
2020/12/13 07:08:39;;;;;;;2.17;1.70;;;4.90;99.90;;;;;;5055312;28;20200;-91
2020/12/13 07:11:12;;;;;;;2.10;1.60;;;4.90;99.90;;;;;;5040149;28;20236;-90
2020/12/13 07:13:46;;;;;;;2.23;1.60;;;4.90;99.90;;;;;;5035512;28;20641;-89
2020/12/13 07:19:08;;;;;;;6.77;2.00;;;4.80;99.90;;;;;;5039752;28;20220;-89
2020/12/13 07:21:43;;;;;;;3.37;2.20;;;4.70;99.90;;;;;;5037771;28;20239;-91
2020/12/13 07:24:14;;;;;;;2.07;1.63;;;4.70;99.90;;;;;;5036831;28;20209;-89
2020/12/13 07:26:47;;;;;;;3.17;1.77;;;4.70;99.90;;;;;;5037846;28;20219;-89
2020/12/13 07:29:19;;;;;;;2.53;1.70;;;4.60;99.90;;;;;;5039938;28;20221;-89
2020/12/13 07:31:49;;;;;;;3.17;2.33;;;4.50;99.90;;;;;;5035613;28;20247;-89
2020/12/13 07:34:22;;;;;;;3.77;2.17;;;4.50;99.90;;;;;;5041717;28;20193;-89
2020/12/13 07:36:54;;;;;;;2.60;2.40;;;4.50;99.90;;;;;;5037278;28;20225;-90
2020/12/13 07:39:28;;;;;;;2.70;2.47;;;4.40;99.90;;;;;;5038461;28;20212;-91
2020/12/13 07:41:59;;;;;;;3.60;2.40;;;4.40;99.90;;;;;;5037240;28;20217;-89
2020/12/13 07:44:30;;;;;;;3.17;2.20;;;4.40;99.90;;;;;;5036810;28;20343;-89
2020/12/13 07:47:02;;;;;;;3.10;2.20;;;4.40;99.90;;;;;;5045783;28;20238;-90
2020/12/13 07:49:34;;;;;;;2.70;2.20;;;4.30;99.90;;;;;;5042995;28;20209;-90
2020/12/13 07:52:05;;;;;;;2.97;2.53;;;4.30;99.90;;;;;;5035440;28;20255;-89
2020/12/13 07:54:36;;;;;;;4.50;2.17;;;4.20;99.90;;;;;;5035297;28;20213;-89
2020/12/13 07:57:15;;;;;;;3.70;2.63;;;4.20;99.90;;;;;;5037662;28;20257;-91
2020/12/13 07:59:46;;;;;;;4.70;3.07;;;4.20;99.90;;;;;;5038189;28;20217;-88
2020/12/13 08:02:19;;;;;;;3.40;2.20;;;4.20;99.90;;;;;;5036704;28;20707;-89
2020/12/13 08:04:52;;;;;;;3.07;2.17;;;4.20;99.90;;;;;;5046652;28;20200;-89
2020/12/13 08:07:22;;;;;;;3.47;2.30;;;4.20;99.90;;;;;;5037381;28;20229;-89
2020/12/13 08:09:59;;;;;;;4.53;2.80;;;4.20;99.90;;;;;;5036522;28;20209;-90
2020/12/13 08:12:50;;;;;;;7.53;2.60;;;4.20;99.90;;;;;;5041605;28;20196;-90
2020/12/13 08:15:21;;;;;;;3.43;2.27;;;4.40;99.90;;;;;;5037529;28;20227;-90
2020/12/13 08:18:04;;;;;;;3.67;2.60;;;4.30;99.90;;;;;;5037477;28;20288;-90
2020/12/13 08:20:40;;;;;;;5.13;2.77;;;4.40;99.90;;;;;;5038426;28;20217;-90
2020/12/13 08:23:13;;;;;;;5.80;3.10;;;4.40;99.90;;;;;;5053798;28;20204;-92
2020/12/13 08:25:44;;;;;;;4.60;2.30;;;4.40;99.90;;;;;;5045795;28;20205;-90
2020/12/13 08:28:18;;;;;;;4.43;2.60;;;4.40;99.90;;;;;;5037449;28;20236;-90
2020/12/13 08:30:50;;;;;;;6.03;2.20;;;4.30;99.90;;;;;;5051550;28;20205;-89
2020/12/13 08:33:25;;;;;;;6.87;2.70;;;4.20;99.90;;;;;;5036102;28;20205;-89
2020/12/13 08:35:57;;;;;;;6.97;2.50;;;4.20;99.90;;;;;;5034598;28;20228;-89
2020/12/13 08:38:29;;;;;;;4.63;2.87;;;4.10;99.90;;;;;;5036145;28;20200;-90
2020/12/13 08:41:00;;;;;;;5.33;3.00;;;4.10;99.90;;;;;;5053264;28;20246;-89
2020/12/13 08:43:36;;;;;;;3.83;2.50;;;4.10;99.90;;;;;;5006689;28;20198;-89
2020/12/13 08:46:07;;;;;;;2.37;2.07;;;4.10;99.90;;;;;;5036308;28;20196;-89
2020/12/13 08:48:38;;;;;;;4.77;2.60;;;4.10;99.90;;;;;;5039647;28;20235;-90
2020/12/13 08:51:13;;;;;;;3.33;2.30;;;4.20;99.90;;;;;;5040160;28;20296;-90
2020/12/13 08:53:43;;;;;;;3.17;2.10;;;4.20;99.90;;;;;;5040172;28;20590;-90
2020/12/13 08:56:14;;;;;;;3.40;1.80;;;4.30;99.90;;;;;;5040253;28;20593;-89
2020/12/13 08:58:52;;;;;;;4.07;1.83;;;4.20;99.90;;;;;;5039982;28;20208;-89
2020/12/13 09:01:26;;;;;;;2.50;1.87;;;4.30;99.90;;;;;;5040287;28;20197;-89
2020/12/13 09:03:58;;;;;;;2.30;1.93;;;4.40;99.90;;;;;;5039127;28;20204;-90
2020/12/13 09:06:31;;;;;;;2.63;2.03;;;4.50;99.90;;;;;;5024760;28;20307;-90
2020/12/13 09:09:12;;;;;;;3.17;1.70;;;4.50;99.90;;;;;;5028295;28;20481;-88
2020/12/13 09:11:44;;;;;;;2.77;1.90;;;4.50;99.90;;;;;;5039581;28;20267;-89
2020/12/13 09:14:30;;;;;;;1.53;1.30;;;4.50;99.90;;;;;;5039320;28;20217;-90
2020/12/13 09:17:03;;;;;;;1.77;1.40;;;4.70;99.90;;;;;;5034189;28;20239;-91
2020/12/13 09:19:34;;;;;;;2.03;1.30;;;5.00;99.90;;;;;;5048744;28;20216;-92
2020/12/13 09:22:06;;;;;;;2.87;1.70;;;5.20;99.90;;;;;;5066939;28;20223;-91
2020/12/13 09:24:36;;;;;;;3.27;1.63;;;5.40;99.90;;;;;;5058766;28;20505;-92
2020/12/13 09:27:09;;;;;;;1.37;1.20;;;5.50;99.90;;;;;;5051578;28;20200;-92
2020/12/13 09:29:40;;;;;;;1.47;1.23;;;5.50;99.90;;;;;;5052421;28;20201;-92
2020/12/13 09:32:11;;;;;;;1.77;1.27;;;5.50;99.90;;;;;;5051891;28;20201;-92
2020/12/13 09:34:43;;;;;;;1.50;1.10;;;5.50;99.90;;;;;;5067743;28;20208;-92
2020/12/13 09:37:16;;;;;;;1.07;0.87;;;5.50;99.90;;;;;;5066800;28;20245;-92
2020/12/13 09:39:48;;;;;;;1.13;1.03;;;5.50;99.90;;;;;;5025841;28;20212;-92
2020/12/13 09:42:19;;;;;;;1.33;1.00;;;5.50;99.90;;;;;;5048796;28;20212;-91
2020/12/13 09:44:50;;;;;;;1.20;1.00;;;5.40;99.90;;;;;;5060002;28;20218;-91
2020/12/13 09:47:20;;;;;;;0.90;0.80;;;5.30;99.90;;;;;;5052561;28;20217;-92
2020/12/13 09:49:50;;;;;;;1.37;0.87;;;5.30;99.90;;;;;;5038618;28;20209;-92
2020/12/13 09:52:23;;;;;;;1.67;1.20;;;5.20;99.90;;;;;;5038092;28;20201;-91
2020/12/13 09:54:56;;;;;;;0.80;0.80;;;5.20;99.90;;;;;;5038404;28;20651;-91
2020/12/13 09:57:28;;;;;;;1.40;0.90;;;5.20;99.90;;;;;;5039154;28;20225;-92
2020/12/13 09:59:59;;;;;;;0.77;0.70;;;5.10;99.90;;;;;;5042105;28;20232;-90
2020/12/13 10:02:30;;;;;;;0.77;0.77;;;5.00;99.90;;;;;;5033708;28;20250;-92
2020/12/13 10:05:03;;;;;;;3.43;0.97;;;5.00;99.90;;;;;;5038967;28;20193;-91
2020/12/13 10:10:18;;;;;;;1.33;1.00;;;4.90;99.90;;;;;;5023160;28;20197;-90
2020/12/13 10:12:49;;;;;;;1.30;1.20;;;4.80;99.90;;;;;;5038977;28;20209;-90
2020/12/13 10:15:21;;;;;;;2.63;1.10;;;4.70;99.90;;;;;;5039270;28;20208;-90
2020/12/13 10:17:50;;;;;;;2.07;1.33;;;4.60;99.90;;;;;;5041135;28;20702;-91
2020/12/13 10:20:21;;;;;;;1.77;1.30;;;4.60;99.90;;;;;;5043342;28;20219;-91
2020/12/13 10:22:52;;;;;;;1.17;1.00;;;4.40;99.90;;;;;;5051342;28;20204;-90
2020/12/13 10:25:26;;;;;;;1.47;1.00;;;4.40;99.90;;;;;;5052135;28;20454;-90
2020/12/13 10:27:57;;;;;;;4.07;1.07;;;4.40;99.90;;;;;;5051518;28;20684;-90
2020/12/13 10:30:28;;;;;;;2.03;1.37;;;4.30;99.90;;;;;;5051912;28;20228;-90
2020/12/13 10:32:59;;;;;;;4.93;1.20;;;4.30;99.90;;;;;;5050434;28;20193;-91
2020/12/13 10:35:31;;;;;;;1.40;1.30;;;4.30;99.90;;;;;;5053070;28;20204;-90
2020/12/13 10:38:03;;;;;;;1.20;1.10;;;4.30;99.90;;;;;;5050078;28;20581;-91
2020/12/13 10:40:36;;;;;;;1.90;1.50;;;4.20;99.90;;;;;;5050036;28;20190;-91
2020/12/13 10:43:07;;;;;;;1.77;1.40;;;4.20;99.90;;;;;;5047202;28;20200;-90
2020/12/13 10:45:38;;;;;;;1.77;1.50;;;4.20;99.90;;;;;;5074218;28;20685;-90
2020/12/13 10:48:22;;;;;;;1.63;1.30;;;4.20;99.90;;;;;;5073453;28;20196;-90
2020/12/13 10:50:52;;;;;;;3.27;1.60;;;4.10;99.90;;;;;;5066713;28;20208;-91
2020/12/13 10:53:25;;;;;;;2.60;1.87;;;4.10;99.90;;;;;;5065080;28;20215;-90
2020/12/13 10:55:56;;;;;;;2.03;1.83;;;4.00;99.90;;;;;;5053590;28;20237;-90
2020/12/13 10:58:27;;;;;;;2.23;1.67;;;3.90;99.90;;;;;;5053607;28;20228;-90
2020/12/13 11:00:58;;;;;;;2.13;1.93;;;3.80;99.90;;;;;;5057578;28;20216;-90
2020/12/13 11:03:28;;;;;;;2.37;1.77;;;3.80;99.90;;;;;;5073184;28;20219;-90
2020/12/13 11:05:59;;;;;;;3.87;1.90;;;3.80;99.90;;;;;;5061183;28;20193;-90
2020/12/13 11:08:31;;;;;;;2.13;1.80;;;3.80;99.90;;;;;;5053717;28;20220;-91
2020/12/13 11:11:02;;;;;;;1.70;1.53;;;3.80;99.90;;;;;;5053665;28;20265;-91
2020/12/13 11:13:33;;;;;;;2.17;1.70;;;3.80;99.90;;;;;;5040450;28;20246;-90
2020/12/13 11:16:04;;;;;;;2.80;2.00;;;3.70;99.90;;;;;;5039044;28;20262;-90
2020/12/13 11:18:35;;;;;;;2.40;1.70;;;3.60;99.90;;;;;;5039434;28;20247;-91
2020/12/13 11:21:05;;;;;;;2.17;1.60;;;3.60;99.90;;;;;;5037763;28;20220;-90
2020/12/13 11:23:37;;;;;;;2.07;1.70;;;3.60;99.90;;;;;;5037991;28;20217;-90
2020/12/13 11:26:09;;;;;;;1.83;1.67;;;3.70;99.90;;;;;;5042354;28;20270;-90
2020/12/13 11:28:41;;;;;;;1.60;1.50;;;3.70;99.90;;;;;;5038317;28;20722;-91
2020/12/13 11:31:11;;;;;;;2.37;1.80;;;3.70;99.90;;;;;;5018262;28;20269;-91
2020/12/13 11:33:41;;;;;;;1.70;1.60;;;3.70;99.90;;;;;;5020455;28;20223;-90
2020/12/13 11:36:12;;;;;;;2.50;1.43;;;3.70;99.90;;;;;;5037988;28;20786;-91
2020/12/13 11:38:44;;;;;;;1.70;1.50;;;3.60;99.90;;;;;;5037179;28;20232;-91
2020/12/13 11:41:15;;;;;;;4.17;1.93;;;3.70;99.90;;;;;;5037298;28;20212;-90
2020/12/13 11:43:48;;;;;;;1.63;1.53;;;3.70;99.90;;;;;;5037468;28;20212;-90
2020/12/13 11:46:19;;;;;;;1.83;1.43;;;3.60;99.90;;;;;;5037719;28;20204;-91
2020/12/13 11:48:49;;;;;;;2.37;1.93;;;3.60;99.90;;;;;;5036550;28;20211;-91
2020/12/13 11:51:23;;;;;;;1.73;1.40;;;3.70;99.90;;;;;;5037531;28;20205;-90
2020/12/13 11:53:56;;;;;;;1.67;1.57;;;3.70;99.90;;;;;;5036739;28;20236;-92
2020/12/13 11:56:27;;;;;;;1.30;1.20;;;3.60;99.90;;;;;;5037295;28;20204;-90
2020/12/13 11:58:58;;;;;;;3.33;1.60;;;3.60;99.90;;;;;;5037426;28;20279;-90
2020/12/13 12:01:29;;;;;;;1.87;1.53;;;3.70;99.90;;;;;;5037284;28;20193;-89
2020/12/13 12:04:00;;;;;;;1.30;1.20;;;3.70;99.90;;;;;;5035729;28;20211;-90
2020/12/13 12:06:31;;;;;;;1.30;1.20;;;3.70;99.90;;;;;;5029903;28;20232;-90
2020/12/13 12:09:05;;;;;;;2.10;1.67;;;3.70;99.90;;;;;;5037114;28;20306;-90
2020/12/13 12:11:36;;;;;;;4.47;1.23;;;3.60;99.90;;;;;;5033391;28;20210;-94
2020/12/13 12:14:10;;;;;;;1.30;1.20;;;3.70;99.90;;;;;;5037337;28;20205;-90
2020/12/13 12:16:41;;;;;;;1.23;1.00;;;3.70;99.90;;;;;;5035845;28;20204;-90
2020/12/13 12:19:13;;;;;;;2.87;1.00;;;3.70;99.90;;;;;;5036592;28;20197;-91
2020/12/13 12:21:50;;;;;;;1.20;1.10;;;3.70;99.90;;;;;;5041578;28;20205;-91
2020/12/13 12:24:22;;;;;;;1.33;0.97;;;3.80;99.90;;;;;;5040880;28;20283;-89
2020/12/13 12:26:54;;;;;;;0.90;0.80;;;3.80;99.90;;;;;;5042918;28;20430;-90
2020/12/13 12:29:24;;;;;;;1.10;1.00;;;3.80;99.90;;;;;;5041072;28;20232;-90
2020/12/13 12:31:56;;;;;;;1.37;1.13;;;3.80;99.90;;;;;;5041954;28;20228;-90
2020/12/13 12:34:29;;;;;;;1.27;0.90;;;3.90;99.90;;;;;;5043850;28;20213;-90
2020/12/13 12:37:00;;;;;;;0.70;0.70;;;3.90;99.90;;;;;;5039991;28;20231;-90
2020/12/13 12:39:32;;;;;;;1.00;0.90;;;3.90;99.90;;;;;;5026222;28;20231;-91
2020/12/13 12:42:02;;;;;;;0.73;0.73;;;3.90;99.90;;;;;;5040379;28;20742;-90
2020/12/13 12:44:34;;;;;;;0.93;0.80;;;3.90;99.90;;;;;;5039291;28;20205;-90
2020/12/13 12:47:07;;;;;;;0.70;0.70;;;4.00;99.90;;;;;;5041167;28;20208;-91
2020/12/13 12:49:39;;;;;;;0.70;0.70;;;4.00;99.90;;;;;;5041598;28;20587;-91
2020/12/13 12:52:10;;;;;;;0.87;0.87;;;4.00;99.90;;;;;;5039615;28;20193;-90
2020/12/13 12:54:59;;;;;;;1.30;0.90;;;4.10;99.90;;;;;;5041106;28;20204;-91
2020/12/13 12:57:29;;;;;;;0.87;0.87;;;4.00;99.90;;;;;;5040042;28;20240;-91
2020/12/13 13:02:49;;;;;;;0.97;0.90;;;4.00;99.90;;;;;;5036203;28;20240;-91
2020/12/13 13:05:24;;;;;;;0.70;0.70;;;4.00;99.90;;;;;;5040891;28;20197;-90
2020/12/13 13:07:55;;;;;;;0.60;0.60;;;4.00;99.90;;;;;;5035249;28;20699;-91
2020/12/13 13:10:29;;;;;;;0.77;0.60;;;4.00;99.90;;;;;;5042103;28;20288;-91
2020/12/13 13:13:01;;;;;;;0.70;0.70;;;4.10;99.90;;;;;;5039912;28;20219;-91
2020/12/13 13:15:53;;;;;;;0.67;0.67;;;4.10;99.90;;;;;;5038534;28;20320;-91
2020/12/13 13:18:26;;;;;;;0.47;0.47;;;4.10;99.90;;;;;;5033622;28;20236;-90
2020/12/13 13:20:59;;;;;;;0.73;0.63;;;4.10;99.90;;;;;;5043066;28;20296;-90
2020/12/13 13:23:29;;;;;;;1.20;0.70;;;4.10;99.90;;;;;;5040974;28;20235;-90
2020/12/13 13:26:02;;;;;;;0.60;0.60;;;4.20;99.90;;;;;;5035091;28;20311;-90
2020/12/13 13:28:32;;;;;;;2.20;0.70;;;4.20;99.90;;;;;;5022314;28;20206;-90
2020/12/13 13:31:02;;;;;;;0.60;0.60;;;4.20;99.90;;;;;;5038772;28;20209;-89
2020/12/13 13:33:33;;;;;;;0.90;0.90;;;4.20;99.90;;;;;;5043758;28;20228;-89
2020/12/13 13:36:05;;;;;;;1.63;0.63;;;4.20;99.90;;;;;;5040658;28;20237;-90
2020/12/13 13:38:36;;;;;;;1.20;0.70;;;4.20;99.90;;;;;;5041316;28;20340;-90
2020/12/13 13:41:12;;;;;;;1.33;0.70;;;4.20;99.90;;;;;;5040895;28;20236;-91
2020/12/13 13:43:44;;;;;;;0.70;0.70;;;4.30;99.90;;;;;;5042498;28;20689;-90
2020/12/13 13:46:39;;;;;;;1.60;0.57;;;4.30;99.90;;;;;;5041843;28;20209;-91
2020/12/13 13:49:32;;;;;;;1.00;0.60;;;4.30;99.90;;;;;;5050323;28;20287;-90
2020/12/13 13:52:02;;;;;;;0.80;0.60;;;4.30;99.90;;;;;;5063195;28;20208;-90
2020/12/13 13:54:32;;;;;;;0.50;0.50;;;4.30;99.90;;;;;;5049961;28;20205;-90
2020/12/13 13:57:05;;;;;;;0.50;0.50;;;4.40;99.90;;;;;;5044861;28;20205;-90
2020/12/13 13:59:43;;;;;;;0.60;0.60;;;4.40;99.90;;;;;;5041249;28;20224;-90
2020/12/13 14:02:14;;;;;;;0.50;0.50;;;4.50;99.90;;;;;;5045263;28;20208;-90
2020/12/13 14:04:45;;;;;;;0.73;0.70;;;4.50;99.90;;;;;;5063237;28;20208;-90
2020/12/13 14:07:53;;;;;;;1.17;0.70;;;4.50;99.90;;;;;;5056645;28;20664;-90